sensor_id;sensor_type;location;lat;lon;timestamp;P1;durP1;ratioP1;P2;durP2;ratioP2
55684;SDS011;41883;49.544;8.646;2022-11-20T00:00:50;15.15;;;9.45;;
55684;SDS011;41883;49.544;8.646;2022-11-20T00:03:15;16.13;;;10.95;;
55684;SDS011;41883;49.544;8.646;2022-11-20T00:05:40;16.15;;;10.05;;
55684;SDS011;41883;49.544;8.646;2022-11-20T00:08:05;17.38;;;11.02;;
55684;SDS011;41883;49.544;8.646;2022-11-20T00:10:31;17.90;;;10.82;;
55684;SDS011;41883;49.544;8.646;2022-11-20T00:13:00;18.60;;;11.52;;
55684;SDS011;41883;49.544;8.646;2022-11-20T00:15:25;16.55;;;10.40;;
55684;SDS011;41883;49.544;8.646;2022-11-20T00:17:50;15.40;;;9.90;;
55684;SDS011;41883;49.544;8.646;2022-11-20T00:20:15;15.23;;;9.30;;
55684;SDS011;41883;49.544;8.646;2022-11-20T00:22:41;18.38;;;10.90;;
55684;SDS011;41883;49.544;8.646;2022-11-20T00:25:06;19.83;;;12.38;;
55684;SDS011;41883;49.544;8.646;2022-11-20T00:27:32;20.10;;;13.15;;
55684;SDS011;41883;49.544;8.646;2022-11-20T00:29:57;18.45;;;11.90;;
55684;SDS011;41883;49.544;8.646;2022-11-20T00:32:22;17.58;;;10.20;;
55684;SDS011;41883;49.544;8.646;2022-11-20T00:34:47;20.73;;;13.45;;
55684;SDS011;41883;49.544;8.646;2022-11-20T00:37:13;17.85;;;11.63;;
55684;SDS011;41883;49.544;8.646;2022-11-20T00:39:38;17.13;;;11.40;;
55684;SDS011;41883;49.544;8.646;2022-11-20T00:42:03;18.88;;;11.85;;
55684;SDS011;41883;49.544;8.646;2022-11-20T00:44:29;17.25;;;11.18;;
55684;SDS011;41883;49.544;8.646;2022-11-20T00:46:54;15.50;;;9.80;;
55684;SDS011;41883;49.544;8.646;2022-11-20T00:49:19;15.88;;;9.88;;
55684;SDS011;41883;49.544;8.646;2022-11-20T00:51:44;14.02;;;8.73;;
55684;SDS011;41883;49.544;8.646;2022-11-20T00:54:10;12.40;;;7.55;;
55684;SDS011;41883;49.544;8.646;2022-11-20T00:56:35;15.48;;;9.73;;
55684;SDS011;41883;49.544;8.646;2022-11-20T00:59:00;18.02;;;11.15;;
55684;SDS011;41883;49.544;8.646;2022-11-20T01:01:26;14.05;;;9.05;;
55684;SDS011;41883;49.544;8.646;2022-11-20T01:03:54;13.15;;;7.85;;
55684;SDS011;41883;49.544;8.646;2022-11-20T01:06:23;12.63;;;7.68;;
55684;SDS011;41883;49.544;8.646;2022-11-20T01:08:49;12.73;;;8.35;;
55684;SDS011;41883;49.544;8.646;2022-11-20T01:11:17;14.57;;;9.18;;
55684;SDS011;41883;49.544;8.646;2022-11-20T01:13:44;16.42;;;9.90;;
55684;SDS011;41883;49.544;8.646;2022-11-20T01:16:16;13.32;;;8.23;;
55684;SDS011;41883;49.544;8.646;2022-11-20T01:18:47;14.70;;;9.13;;
55684;SDS011;41883;49.544;8.646;2022-11-20T01:21:22;12.73;;;7.80;;
55684;SDS011;41883;49.544;8.646;2022-11-20T01:23:50;13.80;;;8.70;;
55684;SDS011;41883;49.544;8.646;2022-11-20T01:26:17;15.30;;;9.45;;
55684;SDS011;41883;49.544;8.646;2022-11-20T01:28:45;13.95;;;8.85;;
55684;SDS011;41883;49.544;8.646;2022-11-20T01:31:15;15.57;;;9.88;;
55684;SDS011;41883;49.544;8.646;2022-11-20T01:33:49;17.75;;;10.50;;
55684;SDS011;41883;49.544;8.646;2022-11-20T01:36:16;14.52;;;8.70;;
55684;SDS011;41883;49.544;8.646;2022-11-20T01:38:42;12.13;;;7.78;;
55684;SDS011;41883;49.544;8.646;2022-11-20T01:41:09;15.48;;;9.43;;
55684;SDS011;41883;49.544;8.646;2022-11-20T01:43:36;15.32;;;9.98;;
55684;SDS011;41883;49.544;8.646;2022-11-20T01:46:08;19.00;;;11.48;;
55684;SDS011;41883;49.544;8.646;2022-11-20T01:48:50;19.85;;;11.73;;
55684;SDS011;41883;49.544;8.646;2022-11-20T01:54:08;16.08;;;10.32;;
55684;SDS011;41883;49.544;8.646;2022-11-20T01:56:40;17.58;;;10.60;;
55684;SDS011;41883;49.544;8.646;2022-11-20T01:59:09;18.90;;;10.70;;
55684;SDS011;41883;49.544;8.646;2022-11-20T02:01:38;19.63;;;12.10;;
55684;SDS011;41883;49.544;8.646;2022-11-20T02:04:04;18.27;;;11.45;;
55684;SDS011;41883;49.544;8.646;2022-11-20T02:06:35;19.38;;;11.35;;
55684;SDS011;41883;49.544;8.646;2022-11-20T02:09:05;14.35;;;8.90;;
55684;SDS011;41883;49.544;8.646;2022-11-20T02:11:30;13.93;;;8.65;;
55684;SDS011;41883;49.544;8.646;2022-11-20T02:13:56;18.25;;;10.98;;
55684;SDS011;41883;49.544;8.646;2022-11-20T02:16:26;18.95;;;11.40;;
55684;SDS011;41883;49.544;8.646;2022-11-20T02:18:55;19.73;;;12.27;;
55684;SDS011;41883;49.544;8.646;2022-11-20T02:24:17;14.85;;;8.93;;
55684;SDS011;41883;49.544;8.646;2022-11-20T02:26:46;12.82;;;7.60;;
55684;SDS011;41883;49.544;8.646;2022-11-20T02:29:24;13.50;;;8.73;;
55684;SDS011;41883;49.544;8.646;2022-11-20T02:31:52;13.50;;;8.57;;
55684;SDS011;41883;49.544;8.646;2022-11-20T02:34:19;14.15;;;8.98;;
55684;SDS011;41883;49.544;8.646;2022-11-20T02:36:45;14.07;;;8.57;;
55684;SDS011;41883;49.544;8.646;2022-11-20T02:39:12;17.50;;;10.80;;
55684;SDS011;41883;49.544;8.646;2022-11-20T02:41:38;17.25;;;11.27;;
55684;SDS011;41883;49.544;8.646;2022-11-20T02:44:04;19.48;;;12.15;;
55684;SDS011;41883;49.544;8.646;2022-11-20T02:46:30;16.02;;;10.30;;
55684;SDS011;41883;49.544;8.646;2022-11-20T02:48:56;15.43;;;9.73;;
55684;SDS011;41883;49.544;8.646;2022-11-20T02:51:21;19.67;;;11.80;;
55684;SDS011;41883;49.544;8.646;2022-11-20T02:53:46;20.30;;;12.55;;
55684;SDS011;41883;49.544;8.646;2022-11-20T02:56:12;17.80;;;11.57;;
55684;SDS011;41883;49.544;8.646;2022-11-20T02:58:37;18.00;;;11.13;;
55684;SDS011;41883;49.544;8.646;2022-11-20T03:01:02;15.88;;;10.00;;
55684;SDS011;41883;49.544;8.646;2022-11-20T03:03:28;15.80;;;9.88;;
55684;SDS011;41883;49.544;8.646;2022-11-20T03:05:53;16.65;;;10.20;;
55684;SDS011;41883;49.544;8.646;2022-11-20T03:08:18;13.75;;;9.05;;
55684;SDS011;41883;49.544;8.646;2022-11-20T03:10:43;17.63;;;11.20;;
55684;SDS011;41883;49.544;8.646;2022-11-20T03:13:09;15.93;;;10.30;;
55684;SDS011;41883;49.544;8.646;2022-11-20T03:15:35;14.90;;;9.77;;
55684;SDS011;41883;49.544;8.646;2022-11-20T03:18:01;16.63;;;9.55;;
55684;SDS011;41883;49.544;8.646;2022-11-20T03:20:26;14.27;;;8.90;;
55684;SDS011;41883;49.544;8.646;2022-11-20T03:22:53;12.60;;;8.02;;
55684;SDS011;41883;49.544;8.646;2022-11-20T03:25:18;11.27;;;7.10;;
55684;SDS011;41883;49.544;8.646;2022-11-20T03:27:44;9.10;;;5.82;;
55684;SDS011;41883;49.544;8.646;2022-11-20T03:30:09;10.43;;;6.57;;
55684;SDS011;41883;49.544;8.646;2022-11-20T03:32:34;10.25;;;6.28;;
55684;SDS011;41883;49.544;8.646;2022-11-20T03:35:00;8.52;;;5.85;;
55684;SDS011;41883;49.544;8.646;2022-11-20T03:37:25;9.52;;;5.93;;
55684;SDS011;41883;49.544;8.646;2022-11-20T03:39:50;13.13;;;8.25;;
55684;SDS011;41883;49.544;8.646;2022-11-20T03:42:15;12.82;;;7.50;;
55684;SDS011;41883;49.544;8.646;2022-11-20T03:44:59;12.02;;;7.30;;
55684;SDS011;41883;49.544;8.646;2022-11-20T03:47:25;11.88;;;7.20;;
55684;SDS011;41883;49.544;8.646;2022-11-20T03:49:50;11.40;;;7.00;;
55684;SDS011;41883;49.544;8.646;2022-11-20T03:52:15;12.35;;;7.70;;
55684;SDS011;41883;49.544;8.646;2022-11-20T03:54:40;14.25;;;8.30;;
55684;SDS011;41883;49.544;8.646;2022-11-20T03:57:06;11.75;;;7.80;;
55684;SDS011;41883;49.544;8.646;2022-11-20T03:59:31;11.10;;;7.53;;
55684;SDS011;41883;49.544;8.646;2022-11-20T04:01:56;12.88;;;8.27;;
55684;SDS011;41883;49.544;8.646;2022-11-20T04:04:21;13.13;;;8.10;;
55684;SDS011;41883;49.544;8.646;2022-11-20T04:06:47;11.68;;;7.13;;
55684;SDS011;41883;49.544;8.646;2022-11-20T04:09:12;11.43;;;7.82;;
55684;SDS011;41883;49.544;8.646;2022-11-20T04:11:39;12.98;;;8.80;;
55684;SDS011;41883;49.544;8.646;2022-11-20T04:14:05;16.08;;;10.95;;
55684;SDS011;41883;49.544;8.646;2022-11-20T04:16:36;15.80;;;10.45;;
55684;SDS011;41883;49.544;8.646;2022-11-20T04:19:03;15.38;;;9.40;;
55684;SDS011;41883;49.544;8.646;2022-11-20T04:21:29;15.82;;;9.30;;
55684;SDS011;41883;49.544;8.646;2022-11-20T04:23:55;14.80;;;9.13;;
55684;SDS011;41883;49.544;8.646;2022-11-20T04:26:22;12.18;;;7.97;;
55684;SDS011;41883;49.544;8.646;2022-11-20T04:28:48;16.90;;;10.70;;
55684;SDS011;41883;49.544;8.646;2022-11-20T04:31:14;16.67;;;9.82;;
55684;SDS011;41883;49.544;8.646;2022-11-20T04:33:41;16.98;;;11.38;;
55684;SDS011;41883;49.544;8.646;2022-11-20T04:36:13;17.20;;;10.63;;
55684;SDS011;41883;49.544;8.646;2022-11-20T04:38:43;15.43;;;9.82;;
55684;SDS011;41883;49.544;8.646;2022-11-20T04:41:16;14.80;;;9.32;;
55684;SDS011;41883;49.544;8.646;2022-11-20T04:43:46;18.98;;;10.45;;
55684;SDS011;41883;49.544;8.646;2022-11-20T04:46:18;17.33;;;10.70;;
55684;SDS011;41883;49.544;8.646;2022-11-20T04:48:45;18.58;;;11.65;;
55684;SDS011;41883;49.544;8.646;2022-11-20T04:51:11;23.10;;;12.52;;
55684;SDS011;41883;49.544;8.646;2022-11-20T04:53:37;16.55;;;10.52;;
55684;SDS011;41883;49.544;8.646;2022-11-20T04:56:03;17.45;;;10.88;;
55684;SDS011;41883;49.544;8.646;2022-11-20T04:58:33;15.50;;;9.35;;
55684;SDS011;41883;49.544;8.646;2022-11-20T05:01:02;14.25;;;9.10;;
55684;SDS011;41883;49.544;8.646;2022-11-20T05:03:30;16.48;;;9.65;;
55684;SDS011;41883;49.544;8.646;2022-11-20T05:05:56;17.45;;;10.52;;
55684;SDS011;41883;49.544;8.646;2022-11-20T05:08:21;19.30;;;11.35;;
55684;SDS011;41883;49.544;8.646;2022-11-20T05:10:47;18.67;;;11.35;;
55684;SDS011;41883;49.544;8.646;2022-11-20T05:13:12;18.10;;;11.60;;
55684;SDS011;41883;49.544;8.646;2022-11-20T05:15:37;20.88;;;13.23;;
55684;SDS011;41883;49.544;8.646;2022-11-20T05:18:03;22.35;;;13.48;;
55684;SDS011;41883;49.544;8.646;2022-11-20T05:20:28;18.50;;;11.68;;
55684;SDS011;41883;49.544;8.646;2022-11-20T05:22:56;20.42;;;12.50;;
55684;SDS011;41883;49.544;8.646;2022-11-20T05:25:22;19.35;;;12.10;;
55684;SDS011;41883;49.544;8.646;2022-11-20T05:27:47;16.63;;;10.32;;
55684;SDS011;41883;49.544;8.646;2022-11-20T05:30:13;16.88;;;10.02;;
55684;SDS011;41883;49.544;8.646;2022-11-20T05:32:38;17.35;;;10.80;;
55684;SDS011;41883;49.544;8.646;2022-11-20T05:35:03;19.83;;;11.43;;
55684;SDS011;41883;49.544;8.646;2022-11-20T05:37:29;19.05;;;11.18;;
55684;SDS011;41883;49.544;8.646;2022-11-20T05:39:54;16.50;;;11.33;;
55684;SDS011;41883;49.544;8.646;2022-11-20T05:42:20;15.73;;;10.35;;
55684;SDS011;41883;49.544;8.646;2022-11-20T05:44:57;17.63;;;11.05;;
55684;SDS011;41883;49.544;8.646;2022-11-20T05:47:23;16.70;;;9.77;;
55684;SDS011;41883;49.544;8.646;2022-11-20T05:49:49;16.35;;;9.68;;
55684;SDS011;41883;49.544;8.646;2022-11-20T05:52:14;11.88;;;7.60;;
55684;SDS011;41883;49.544;8.646;2022-11-20T05:54:40;11.02;;;7.03;;
55684;SDS011;41883;49.544;8.646;2022-11-20T05:57:05;11.57;;;7.15;;
55684;SDS011;41883;49.544;8.646;2022-11-20T05:59:30;13.65;;;8.45;;
55684;SDS011;41883;49.544;8.646;2022-11-20T06:01:55;13.70;;;8.73;;
55684;SDS011;41883;49.544;8.646;2022-11-20T06:04:21;12.07;;;7.40;;
55684;SDS011;41883;49.544;8.646;2022-11-20T06:06:46;13.68;;;8.02;;
55684;SDS011;41883;49.544;8.646;2022-11-20T06:09:11;15.88;;;8.77;;
55684;SDS011;41883;49.544;8.646;2022-11-20T06:11:36;16.70;;;10.05;;
55684;SDS011;41883;49.544;8.646;2022-11-20T06:14:02;18.45;;;10.65;;
55684;SDS011;41883;49.544;8.646;2022-11-20T06:16:27;15.32;;;9.60;;
55684;SDS011;41883;49.544;8.646;2022-11-20T06:18:52;16.30;;;10.40;;
55684;SDS011;41883;49.544;8.646;2022-11-20T06:21:19;16.75;;;10.20;;
55684;SDS011;41883;49.544;8.646;2022-11-20T06:23:46;18.70;;;10.90;;
55684;SDS011;41883;49.544;8.646;2022-11-20T06:26:13;16.75;;;9.98;;
55684;SDS011;41883;49.544;8.646;2022-11-20T06:28:43;23.40;;;13.90;;
55684;SDS011;41883;49.544;8.646;2022-11-20T06:31:10;19.35;;;11.52;;
55684;SDS011;41883;49.544;8.646;2022-11-20T06:33:36;18.67;;;11.07;;
55684;SDS011;41883;49.544;8.646;2022-11-20T06:36:02;15.63;;;9.32;;
55684;SDS011;41883;49.544;8.646;2022-11-20T06:38:28;14.63;;;8.98;;
55684;SDS011;41883;49.544;8.646;2022-11-20T06:40:54;16.67;;;10.02;;
55684;SDS011;41883;49.544;8.646;2022-11-20T06:43:21;13.55;;;8.40;;
55684;SDS011;41883;49.544;8.646;2022-11-20T06:45:51;15.85;;;9.25;;
55684;SDS011;41883;49.544;8.646;2022-11-20T06:48:17;17.10;;;9.85;;
55684;SDS011;41883;49.544;8.646;2022-11-20T06:50:43;15.25;;;9.48;;
55684;SDS011;41883;49.544;8.646;2022-11-20T06:53:08;14.80;;;9.25;;
55684;SDS011;41883;49.544;8.646;2022-11-20T06:55:33;18.77;;;10.77;;
55684;SDS011;41883;49.544;8.646;2022-11-20T06:57:58;15.45;;;9.13;;
55684;SDS011;41883;49.544;8.646;2022-11-20T07:00:24;16.38;;;9.65;;
55684;SDS011;41883;49.544;8.646;2022-11-20T07:02:49;14.80;;;8.73;;
55684;SDS011;41883;49.544;8.646;2022-11-20T07:05:15;16.90;;;9.20;;
55684;SDS011;41883;49.544;8.646;2022-11-20T07:07:41;18.10;;;9.82;;
55684;SDS011;41883;49.544;8.646;2022-11-20T07:10:06;18.95;;;10.32;;
55684;SDS011;41883;49.544;8.646;2022-11-20T07:12:32;18.60;;;10.70;;
55684;SDS011;41883;49.544;8.646;2022-11-20T07:14:57;19.17;;;10.75;;
55684;SDS011;41883;49.544;8.646;2022-11-20T07:17:22;19.48;;;11.82;;
55684;SDS011;41883;49.544;8.646;2022-11-20T07:19:48;16.70;;;10.30;;
55684;SDS011;41883;49.544;8.646;2022-11-20T07:22:13;19.40;;;11.20;;
55684;SDS011;41883;49.544;8.646;2022-11-20T07:24:38;18.27;;;11.25;;
55684;SDS011;41883;49.544;8.646;2022-11-20T07:27:04;17.42;;;10.55;;
55684;SDS011;41883;49.544;8.646;2022-11-20T07:29:29;15.60;;;8.95;;
55684;SDS011;41883;49.544;8.646;2022-11-20T07:31:54;17.00;;;8.95;;
55684;SDS011;41883;49.544;8.646;2022-11-20T07:34:21;14.75;;;8.40;;
55684;SDS011;41883;49.544;8.646;2022-11-20T07:36:46;12.57;;;7.63;;
55684;SDS011;41883;49.544;8.646;2022-11-20T07:39:11;13.55;;;8.25;;
55684;SDS011;41883;49.544;8.646;2022-11-20T07:41:37;13.77;;;7.95;;
55684;SDS011;41883;49.544;8.646;2022-11-20T07:44:02;15.82;;;9.25;;
55684;SDS011;41883;49.544;8.646;2022-11-20T07:46:27;16.10;;;9.93;;
55684;SDS011;41883;49.544;8.646;2022-11-20T07:48:53;16.80;;;9.85;;
55684;SDS011;41883;49.544;8.646;2022-11-20T07:51:18;15.68;;;8.75;;
55684;SDS011;41883;49.544;8.646;2022-11-20T07:53:43;14.82;;;9.07;;
55684;SDS011;41883;49.544;8.646;2022-11-20T07:56:08;12.38;;;7.32;;
55684;SDS011;41883;49.544;8.646;2022-11-20T07:58:34;14.05;;;7.85;;
55684;SDS011;41883;49.544;8.646;2022-11-20T08:01:03;14.30;;;8.32;;
55684;SDS011;41883;49.544;8.646;2022-11-20T08:03:32;13.82;;;8.10;;
55684;SDS011;41883;49.544;8.646;2022-11-20T08:05:59;12.60;;;8.15;;
55684;SDS011;41883;49.544;8.646;2022-11-20T08:08:25;13.02;;;8.40;;
55684;SDS011;41883;49.544;8.646;2022-11-20T08:10:50;15.18;;;8.75;;
55684;SDS011;41883;49.544;8.646;2022-11-20T08:13:16;15.55;;;9.45;;
55684;SDS011;41883;49.544;8.646;2022-11-20T08:16:00;15.48;;;9.10;;
55684;SDS011;41883;49.544;8.646;2022-11-20T08:18:25;16.80;;;9.85;;
55684;SDS011;41883;49.544;8.646;2022-11-20T08:20:50;15.18;;;9.80;;
55684;SDS011;41883;49.544;8.646;2022-11-20T08:23:15;14.18;;;8.60;;
55684;SDS011;41883;49.544;8.646;2022-11-20T08:25:41;14.90;;;9.05;;
55684;SDS011;41883;49.544;8.646;2022-11-20T08:28:07;13.00;;;8.52;;
55684;SDS011;41883;49.544;8.646;2022-11-20T08:30:34;15.95;;;9.52;;
55684;SDS011;41883;49.544;8.646;2022-11-20T08:33:01;15.73;;;8.65;;
55684;SDS011;41883;49.544;8.646;2022-11-20T08:35:32;15.30;;;9.15;;
55684;SDS011;41883;49.544;8.646;2022-11-20T08:37:58;15.88;;;9.50;;
55684;SDS011;41883;49.544;8.646;2022-11-20T08:40:24;17.85;;;9.60;;
55684;SDS011;41883;49.544;8.646;2022-11-20T08:42:49;17.50;;;10.18;;
55684;SDS011;41883;49.544;8.646;2022-11-20T08:45:16;16.48;;;9.27;;
55684;SDS011;41883;49.544;8.646;2022-11-20T08:47:43;20.40;;;10.98;;
55684;SDS011;41883;49.544;8.646;2022-11-20T08:50:09;22.40;;;12.52;;
55684;SDS011;41883;49.544;8.646;2022-11-20T08:52:35;21.52;;;12.80;;
55684;SDS011;41883;49.544;8.646;2022-11-20T08:55:00;30.35;;;16.10;;
55684;SDS011;41883;49.544;8.646;2022-11-20T08:57:26;27.65;;;15.35;;
55684;SDS011;41883;49.544;8.646;2022-11-20T08:59:51;34.42;;;16.95;;
55684;SDS011;41883;49.544;8.646;2022-11-20T09:02:16;27.55;;;14.65;;
55684;SDS011;41883;49.544;8.646;2022-11-20T09:04:41;27.20;;;15.60;;
55684;SDS011;41883;49.544;8.646;2022-11-20T09:07:07;28.67;;;15.73;;
55684;SDS011;41883;49.544;8.646;2022-11-20T09:09:32;31.80;;;15.55;;
55684;SDS011;41883;49.544;8.646;2022-11-20T09:11:58;29.67;;;16.50;;
55684;SDS011;41883;49.544;8.646;2022-11-20T09:14:23;34.22;;;17.60;;
55684;SDS011;41883;49.544;8.646;2022-11-20T09:16:53;34.28;;;18.15;;
55684;SDS011;41883;49.544;8.646;2022-11-20T09:19:19;27.15;;;14.93;;
55684;SDS011;41883;49.544;8.646;2022-11-20T09:21:44;26.25;;;14.45;;
55684;SDS011;41883;49.544;8.646;2022-11-20T09:24:10;28.02;;;14.98;;
55684;SDS011;41883;49.544;8.646;2022-11-20T09:26:35;28.60;;;15.02;;
55684;SDS011;41883;49.544;8.646;2022-11-20T09:29:00;30.88;;;15.35;;
55684;SDS011;41883;49.544;8.646;2022-11-20T09:31:25;24.58;;;12.93;;
55684;SDS011;41883;49.544;8.646;2022-11-20T09:33:51;27.42;;;14.68;;
55684;SDS011;41883;49.544;8.646;2022-11-20T09:36:16;28.50;;;15.70;;
55684;SDS011;41883;49.544;8.646;2022-11-20T09:38:43;27.35;;;13.90;;
55684;SDS011;41883;49.544;8.646;2022-11-20T09:46:55;27.85;;;15.27;;
55684;SDS011;41883;49.544;8.646;2022-11-20T09:49:36;34.05;;;17.35;;
55684;SDS011;41883;49.544;8.646;2022-11-20T09:54:52;22.67;;;13.18;;
55684;SDS011;41883;49.544;8.646;2022-11-20T09:57:20;27.58;;;14.05;;
55684;SDS011;41883;49.544;8.646;2022-11-20T09:59:51;20.10;;;11.05;;
55684;SDS011;41883;49.544;8.646;2022-11-20T10:05:24;20.20;;;11.70;;
55684;SDS011;41883;49.544;8.646;2022-11-20T10:07:48;20.45;;;11.20;;
55684;SDS011;41883;49.544;8.646;2022-11-20T10:10:26;22.13;;;12.20;;
55684;SDS011;41883;49.544;8.646;2022-11-20T10:18:20;24.30;;;11.80;;
55684;SDS011;41883;49.544;8.646;2022-11-20T10:26:42;36.70;;;18.35;;
55684;SDS011;41883;49.544;8.646;2022-11-20T10:29:14;32.63;;;17.25;;
55684;SDS011;41883;49.544;8.646;2022-11-20T10:36:46;28.27;;;14.63;;
55684;SDS011;41883;49.544;8.646;2022-11-20T10:39:33;26.98;;;15.15;;
55684;SDS011;41883;49.544;8.646;2022-11-20T10:42:04;33.55;;;18.15;;
55684;SDS011;41883;49.544;8.646;2022-11-20T10:44:35;30.08;;;15.68;;
55684;SDS011;41883;49.544;8.646;2022-11-20T10:47:20;26.45;;;14.40;;
55684;SDS011;41883;49.544;8.646;2022-11-20T10:49:48;28.45;;;15.15;;
55684;SDS011;41883;49.544;8.646;2022-11-20T10:57:30;36.78;;;18.05;;
55684;SDS011;41883;49.544;8.646;2022-11-20T11:00:15;36.30;;;18.83;;
55684;SDS011;41883;49.544;8.646;2022-11-20T11:02:48;36.50;;;18.08;;
55684;SDS011;41883;49.544;8.646;2022-11-20T11:05:32;28.13;;;14.85;;
55684;SDS011;41883;49.544;8.646;2022-11-20T11:08:02;27.05;;;14.48;;
55684;SDS011;41883;49.544;8.646;2022-11-20T11:13:24;22.42;;;12.25;;
55684;SDS011;41883;49.544;8.646;2022-11-20T11:15:51;24.67;;;12.88;;
55684;SDS011;41883;49.544;8.646;2022-11-20T11:20:51;26.63;;;13.52;;
55684;SDS011;41883;49.544;8.646;2022-11-20T11:23:34;31.27;;;18.33;;
55684;SDS011;41883;49.544;8.646;2022-11-20T11:26:00;30.48;;;16.67;;
55684;SDS011;41883;49.544;8.646;2022-11-20T11:28:27;29.15;;;17.05;;
55684;SDS011;41883;49.544;8.646;2022-11-20T11:30:53;31.95;;;17.88;;
55684;SDS011;41883;49.544;8.646;2022-11-20T11:33:29;31.63;;;17.23;;
55684;SDS011;41883;49.544;8.646;2022-11-20T11:36:03;26.10;;;14.88;;
55684;SDS011;41883;49.544;8.646;2022-11-20T11:38:40;25.50;;;14.70;;
55684;SDS011;41883;49.544;8.646;2022-11-20T11:41:18;29.17;;;16.23;;
55684;SDS011;41883;49.544;8.646;2022-11-20T11:44:00;29.38;;;16.95;;
55684;SDS011;41883;49.544;8.646;2022-11-20T11:46:57;34.47;;;17.70;;
55684;SDS011;41883;49.544;8.646;2022-11-20T11:49:23;32.95;;;17.33;;
55684;SDS011;41883;49.544;8.646;2022-11-20T11:51:56;28.55;;;15.35;;
55684;SDS011;41883;49.544;8.646;2022-11-20T11:54:43;25.40;;;14.20;;
55684;SDS011;41883;49.544;8.646;2022-11-20T11:57:20;21.83;;;12.10;;
55684;SDS011;41883;49.544;8.646;2022-11-20T11:59:57;26.02;;;13.48;;
55684;SDS011;41883;49.544;8.646;2022-11-20T12:03:08;21.15;;;11.43;;
55684;SDS011;41883;49.544;8.646;2022-11-20T12:05:37;20.60;;;11.35;;
55684;SDS011;41883;49.544;8.646;2022-11-20T12:10:57;21.95;;;11.55;;
55684;SDS011;41883;49.544;8.646;2022-11-20T12:16:12;18.87;;;10.50;;
55684;SDS011;41883;49.544;8.646;2022-11-20T12:18:38;18.10;;;9.90;;
55684;SDS011;41883;49.544;8.646;2022-11-20T12:23:59;19.50;;;11.52;;
55684;SDS011;41883;49.544;8.646;2022-11-20T12:26:35;18.05;;;10.57;;
55684;SDS011;41883;49.544;8.646;2022-11-20T12:34:47;18.75;;;11.18;;
55684;SDS011;41883;49.544;8.646;2022-11-20T12:56:40;28.85;;;17.00;;
55684;SDS011;41883;49.544;8.646;2022-11-20T13:01:45;21.25;;;13.20;;
55684;SDS011;41883;49.544;8.646;2022-11-20T13:07:18;19.58;;;10.80;;
55684;SDS011;41883;49.544;8.646;2022-11-20T13:09:48;28.65;;;16.17;;
55684;SDS011;41883;49.544;8.646;2022-11-20T13:12:17;42.42;;;22.42;;
55684;SDS011;41883;49.544;8.646;2022-11-20T13:20:25;29.83;;;17.35;;
55684;SDS011;41883;49.544;8.646;2022-11-20T13:22:53;32.17;;;16.67;;
55684;SDS011;41883;49.544;8.646;2022-11-20T13:25:28;22.60;;;13.60;;
55684;SDS011;41883;49.544;8.646;2022-11-20T13:28:01;21.98;;;14.20;;
55684;SDS011;41883;49.544;8.646;2022-11-20T13:30:30;20.20;;;12.63;;
55684;SDS011;41883;49.544;8.646;2022-11-20T13:32:57;20.08;;;11.93;;
55684;SDS011;41883;49.544;8.646;2022-11-20T13:35:35;25.63;;;13.95;;
55684;SDS011;41883;49.544;8.646;2022-11-20T13:38:06;19.40;;;11.63;;
55684;SDS011;41883;49.544;8.646;2022-11-20T13:40:34;18.67;;;11.70;;
55684;SDS011;41883;49.544;8.646;2022-11-20T13:43:15;14.88;;;9.73;;
55684;SDS011;41883;49.544;8.646;2022-11-20T13:46:01;17.67;;;10.27;;
55684;SDS011;41883;49.544;8.646;2022-11-20T13:48:32;16.08;;;9.93;;
55684;SDS011;41883;49.544;8.646;2022-11-20T13:56:40;15.35;;;8.93;;
55684;SDS011;41883;49.544;8.646;2022-11-20T14:01:57;14.18;;;9.10;;
55684;SDS011;41883;49.544;8.646;2022-11-20T14:06:51;12.80;;;8.63;;
55684;SDS011;41883;49.544;8.646;2022-11-20T14:09:51;13.18;;;9.52;;
55684;SDS011;41883;49.544;8.646;2022-11-20T14:12:17;11.70;;;7.53;;
55684;SDS011;41883;49.544;8.646;2022-11-20T14:14:47;12.38;;;8.02;;
55684;SDS011;41883;49.544;8.646;2022-11-20T14:17:19;11.05;;;7.00;;
55684;SDS011;41883;49.544;8.646;2022-11-20T14:19:53;9.70;;;6.78;;
55684;SDS011;41883;49.544;8.646;2022-11-20T14:22:22;10.68;;;7.25;;
55684;SDS011;41883;49.544;8.646;2022-11-20T14:27:37;13.07;;;8.30;;
55684;SDS011;41883;49.544;8.646;2022-11-20T14:30:05;11.48;;;8.02;;
55684;SDS011;41883;49.544;8.646;2022-11-20T14:32:37;11.80;;;7.63;;
55684;SDS011;41883;49.544;8.646;2022-11-20T14:35:08;10.70;;;6.75;;
55684;SDS011;41883;49.544;8.646;2022-11-20T14:37:38;10.10;;;6.75;;
55684;SDS011;41883;49.544;8.646;2022-11-20T14:40:21;9.77;;;6.20;;
55684;SDS011;41883;49.544;8.646;2022-11-20T14:42:54;9.15;;;5.63;;
55684;SDS011;41883;49.544;8.646;2022-11-20T14:45:20;8.63;;;4.80;;
55684;SDS011;41883;49.544;8.646;2022-11-20T14:47:47;6.88;;;3.22;;
55684;SDS011;41883;49.544;8.646;2022-11-20T14:50:22;5.38;;;2.60;;
55684;SDS011;41883;49.544;8.646;2022-11-20T14:52:52;4.20;;;2.33;;
55684;SDS011;41883;49.544;8.646;2022-11-20T14:55:32;4.43;;;2.05;;
55684;SDS011;41883;49.544;8.646;2022-11-20T14:58:00;3.45;;;1.77;;
55684;SDS011;41883;49.544;8.646;2022-11-20T15:02:56;4.80;;;1.70;;
55684;SDS011;41883;49.544;8.646;2022-11-20T15:05:23;4.22;;;1.67;;
55684;SDS011;41883;49.544;8.646;2022-11-20T15:07:51;2.92;;;1.35;;
55684;SDS011;41883;49.544;8.646;2022-11-20T15:10:31;3.95;;;1.45;;
55684;SDS011;41883;49.544;8.646;2022-11-20T15:13:03;1.85;;;1.23;;
55684;SDS011;41883;49.544;8.646;2022-11-20T15:15:36;3.42;;;1.20;;
55684;SDS011;41883;49.544;8.646;2022-11-20T15:18:19;2.92;;;1.45;;
55684;SDS011;41883;49.544;8.646;2022-11-20T15:20:46;4.25;;;1.50;;
55684;SDS011;41883;49.544;8.646;2022-11-20T15:23:13;4.82;;;1.55;;
55684;SDS011;41883;49.544;8.646;2022-11-20T15:25:41;4.35;;;1.90;;
55684;SDS011;41883;49.544;8.646;2022-11-20T15:31:06;4.13;;;1.67;;
55684;SDS011;41883;49.544;8.646;2022-11-20T15:33:34;2.47;;;1.48;;
55684;SDS011;41883;49.544;8.646;2022-11-20T15:35:59;5.38;;;1.63;;
55684;SDS011;41883;49.544;8.646;2022-11-20T15:38:25;2.60;;;1.70;;
55684;SDS011;41883;49.544;8.646;2022-11-20T15:40:50;2.50;;;1.67;;
55684;SDS011;41883;49.544;8.646;2022-11-20T15:43:16;2.70;;;1.60;;
55684;SDS011;41883;49.544;8.646;2022-11-20T15:48:12;2.65;;;1.40;;
55684;SDS011;41883;49.544;8.646;2022-11-20T15:50:41;3.05;;;1.65;;
55684;SDS011;41883;49.544;8.646;2022-11-20T15:53:14;4.50;;;1.60;;
55684;SDS011;41883;49.544;8.646;2022-11-20T15:55:39;2.78;;;1.40;;
55684;SDS011;41883;49.544;8.646;2022-11-20T15:58:05;2.30;;;1.17;;
55684;SDS011;41883;49.544;8.646;2022-11-20T16:00:30;2.75;;;1.40;;
55684;SDS011;41883;49.544;8.646;2022-11-20T16:02:55;4.10;;;1.50;;
55684;SDS011;41883;49.544;8.646;2022-11-20T16:05:21;2.35;;;1.48;;
55684;SDS011;41883;49.544;8.646;2022-11-20T16:07:48;5.15;;;2.00;;
55684;SDS011;41883;49.544;8.646;2022-11-20T16:10:13;4.32;;;1.90;;
55684;SDS011;41883;49.544;8.646;2022-11-20T16:12:39;4.50;;;1.92;;
55684;SDS011;41883;49.544;8.646;2022-11-20T16:15:23;3.88;;;2.10;;
55684;SDS011;41883;49.544;8.646;2022-11-20T16:18:08;3.63;;;2.00;;
55684;SDS011;41883;49.544;8.646;2022-11-20T16:20:35;5.10;;;2.60;;
55684;SDS011;41883;49.544;8.646;2022-11-20T16:23:01;5.28;;;2.88;;
55684;SDS011;41883;49.544;8.646;2022-11-20T16:25:26;6.15;;;3.22;;
55684;SDS011;41883;49.544;8.646;2022-11-20T16:27:52;6.13;;;3.30;;